sensor_id;sensor_type;location;lat;lon;timestamp;temperature;humidity
21039;DHT22;10678;51.002;4.786;2023-01-19T00:00:06;2.50;99.90
21039;DHT22;10678;51.002;4.786;2023-01-19T00:02:36;2.60;99.90
21039;DHT22;10678;51.002;4.786;2023-01-19T00:05:03;2.70;99.90
21039;DHT22;10678;51.002;4.786;2023-01-19T00:07:30;2.70;99.90
21039;DHT22;10678;51.002;4.786;2023-01-19T00:09:56;2.70;99.90
21039;DHT22;10678;51.002;4.786;2023-01-19T00:12:21;2.80;99.90
21039;DHT22;10678;51.002;4.786;2023-01-19T00:14:47;2.90;99.90
21039;DHT22;10678;51.002;4.786;2023-01-19T00:17:13;2.80;99.90
21039;DHT22;10678;51.002;4.786;2023-01-19T00:19:38;2.70;99.90
21039;DHT22;10678;51.002;4.786;2023-01-19T00:22:04;2.60;99.90
21039;DHT22;10678;51.002;4.786;2023-01-19T00:24:31;2.60;99.90
21039;DHT22;10678;51.002;4.786;2023-01-19T00:26:56;2.60;99.90
21039;DHT22;10678;51.002;4.786;2023-01-19T00:29:22;2.50;99.90
21039;DHT22;10678;51.002;4.786;2023-01-19T00:31:48;2.50;99.90
21039;DHT22;10678;51.002;4.786;2023-01-19T00:34:14;2.70;99.90
21039;DHT22;10678;51.002;4.786;2023-01-19T00:36:40;2.70;99.90
21039;DHT22;10678;51.002;4.786;2023-01-19T00:39:06;2.90;99.90
21039;DHT22;10678;51.002;4.786;2023-01-19T00:41:31;3.10;99.90
21039;DHT22;10678;51.002;4.786;2023-01-19T00:44:16;3.20;99.90
21039;DHT22;10678;51.002;4.786;2023-01-19T00:46:41;3.20;99.90
21039;DHT22;10678;51.002;4.786;2023-01-19T00:49:07;3.00;99.90
21039;DHT22;10678;51.002;4.786;2023-01-19T00:51:32;2.90;99.90
21039;DHT22;10678;51.002;4.786;2023-01-19T00:53:58;2.90;99.90
21039;DHT22;10678;51.002;4.786;2023-01-19T00:56:32;2.80;99.90
21039;DHT22;10678;51.002;4.786;2023-01-19T00:58:58;2.70;99.90
21039;DHT22;10678;51.002;4.786;2023-01-19T01:01:25;2.70;99.90
21039;DHT22;10678;51.002;4.786;2023-01-19T01:03:50;2.60;99.90
21039;DHT22;10678;51.002;4.786;2023-01-19T01:06:18;2.70;99.90
21039;DHT22;10678;51.002;4.786;2023-01-19T01:08:44;2.70;99.90
21039;DHT22;10678;51.002;4.786;2023-01-19T01:11:09;2.60;99.90
21039;DHT22;10678;51.002;4.786;2023-01-19T01:13:35;2.50;99.90
21039;DHT22;10678;51.002;4.786;2023-01-19T01:16:00;2.70;99.90
21039;DHT22;10678;51.002;4.786;2023-01-19T01:18:26;2.60;99.90
21039;DHT22;10678;51.002;4.786;2023-01-19T01:20:52;2.50;99.90
21039;DHT22;10678;51.002;4.786;2023-01-19T01:23:17;2.70;99.90
21039;DHT22;10678;51.002;4.786;2023-01-19T01:25:47;2.70;99.90
21039;DHT22;10678;51.002;4.786;2023-01-19T01:28:12;2.70;99.90
21039;DHT22;10678;51.002;4.786;2023-01-19T01:30:38;2.60;99.90
21039;DHT22;10678;51.002;4.786;2023-01-19T01:33:06;2.50;99.90
21039;DHT22;10678;51.002;4.786;2023-01-19T01:35:31;2.40;99.90
21039;DHT22;10678;51.002;4.786;2023-01-19T01:37:59;2.30;99.90
21039;DHT22;10678;51.002;4.786;2023-01-19T01:40:25;2.40;99.90
21039;DHT22;10678;51.002;4.786;2023-01-19T01:42:51;2.40;99.90
21039;DHT22;10678;51.002;4.786;2023-01-19T01:47:51;2.30;99.90
21039;DHT22;10678;51.002;4.786;2023-01-19T01:50:24;2.30;99.90
21039;DHT22;10678;51.002;4.786;2023-01-19T01:52:58;2.20;99.90
21039;DHT22;10678;51.002;4.786;2023-01-19T01:55:26;2.10;99.90
21039;DHT22;10678;51.002;4.786;2023-01-19T01:57:56;2.20;99.90
21039;DHT22;10678;51.002;4.786;2023-01-19T02:00:24;2.30;99.90
21039;DHT22;10678;51.002;4.786;2023-01-19T02:02:50;2.30;99.90
21039;DHT22;10678;51.002;4.786;2023-01-19T02:05:33;2.30;99.90
21039;DHT22;10678;51.002;4.786;2023-01-19T02:08:20;2.40;99.90
21039;DHT22;10678;51.002;4.786;2023-01-19T02:11:08;2.50;99.90
21039;DHT22;10678;51.002;4.786;2023-01-19T02:13:52;2.40;99.90
21039;DHT22;10678;51.002;4.786;2023-01-19T02:16:18;2.50;99.90
21039;DHT22;10678;51.002;4.786;2023-01-19T02:18:44;2.40;99.90
21039;DHT22;10678;51.002;4.786;2023-01-19T02:21:20;2.40;99.90
21039;DHT22;10678;51.002;4.786;2023-01-19T02:23:52;2.30;99.90
21039;DHT22;10678;51.002;4.786;2023-01-19T02:26:24;2.40;99.90
21039;DHT22;10678;51.002;4.786;2023-01-19T02:29:02;2.30;99.90
21039;DHT22;10678;51.002;4.786;2023-01-19T02:31:30;2.40;99.90
21039;DHT22;10678;51.002;4.786;2023-01-19T02:33:57;2.30;99.90
21039;DHT22;10678;51.002;4.786;2023-01-19T02:36:28;2.30;99.90
21039;DHT22;10678;51.002;4.786;2023-01-19T02:38:55;2.30;99.90
21039;DHT22;10678;51.002;4.786;2023-01-19T02:41:27;2.40;99.90
21039;DHT22;10678;51.002;4.786;2023-01-19T02:43:56;2.40;99.90
21039;DHT22;10678;51.002;4.786;2023-01-19T02:46:22;2.40;99.90
21039;DHT22;10678;51.002;4.786;2023-01-19T02:48:48;2.40;99.90
21039;DHT22;10678;51.002;4.786;2023-01-19T02:51:24;2.30;99.90
21039;DHT22;10678;51.002;4.786;2023-01-19T02:56:56;2.50;99.90
21039;DHT22;10678;51.002;4.786;2023-01-19T03:13:51;2.60;99.90
21039;DHT22;10678;51.002;4.786;2023-01-19T03:16:33;2.70;99.90
21039;DHT22;10678;51.002;4.786;2023-01-19T03:21:36;2.80;99.90
21039;DHT22;10678;51.002;4.786;2023-01-19T03:24:05;2.80;99.90
21039;DHT22;10678;51.002;4.786;2023-01-19T03:26:40;2.80;99.90
21039;DHT22;10678;51.002;4.786;2023-01-19T03:29:09;2.90;99.90
21039;DHT22;10678;51.002;4.786;2023-01-19T03:31:37;2.90;99.90
21039;DHT22;10678;51.002;4.786;2023-01-19T03:34:08;3.00;99.90
21039;DHT22;10678;51.002;4.786;2023-01-19T03:36:49;3.00;99.90
21039;DHT22;10678;51.002;4.786;2023-01-19T03:39:20;2.90;99.90
21039;DHT22;10678;51.002;4.786;2023-01-19T03:41:48;3.00;99.90
21039;DHT22;10678;51.002;4.786;2023-01-19T03:44:15;2.90;99.90
21039;DHT22;10678;51.002;4.786;2023-01-19T03:46:41;2.80;99.90
21039;DHT22;10678;51.002;4.786;2023-01-19T03:49:08;2.90;99.90
21039;DHT22;10678;51.002;4.786;2023-01-19T03:51:38;3.10;99.90
21039;DHT22;10678;51.002;4.786;2023-01-19T03:54:05;3.10;99.90
21039;DHT22;10678;51.002;4.786;2023-01-19T03:56:31;3.00;99.90
21039;DHT22;10678;51.002;4.786;2023-01-19T03:58:57;3.10;99.90
21039;DHT22;10678;51.002;4.786;2023-01-19T04:01:23;2.80;99.90
21039;DHT22;10678;51.002;4.786;2023-01-19T04:03:50;2.90;99.90
21039;DHT22;10678;51.002;4.786;2023-01-19T04:06:16;2.90;99.90
21039;DHT22;10678;51.002;4.786;2023-01-19T04:08:42;2.80;99.90
21039;DHT22;10678;51.002;4.786;2023-01-19T04:11:08;3.00;99.90
21039;DHT22;10678;51.002;4.786;2023-01-19T04:13:34;2.90;99.90
21039;DHT22;10678;51.002;4.786;2023-01-19T04:16:01;2.90;99.90
21039;DHT22;10678;51.002;4.786;2023-01-19T04:18:28;2.90;99.90
21039;DHT22;10678;51.002;4.786;2023-01-19T04:20:54;2.90;99.90
21039;DHT22;10678;51.002;4.786;2023-01-19T04:23:20;3.00;99.90
21039;DHT22;10678;51.002;4.786;2023-01-19T04:25:45;2.80;99.90
21039;DHT22;10678;51.002;4.786;2023-01-19T04:28:11;2.70;99.90
21039;DHT22;10678;51.002;4.786;2023-01-19T04:30:36;2.80;99.90
21039;DHT22;10678;51.002;4.786;2023-01-19T04:33:02;2.80;99.90
21039;DHT22;10678;51.002;4.786;2023-01-19T04:35:27;2.80;99.90
21039;DHT22;10678;51.002;4.786;2023-01-19T04:37:53;2.90;99.90
21039;DHT22;10678;51.002;4.786;2023-01-19T04:40:19;2.90;99.90
21039;DHT22;10678;51.002;4.786;2023-01-19T04:42:45;2.90;99.90
21039;DHT22;10678;51.002;4.786;2023-01-19T04:45:12;2.70;99.90
21039;DHT22;10678;51.002;4.786;2023-01-19T04:47:38;2.90;99.90
21039;DHT22;10678;51.002;4.786;2023-01-19T04:50:04;2.80;99.90
21039;DHT22;10678;51.002;4.786;2023-01-19T04:52:32;3.00;99.90
21039;DHT22;10678;51.002;4.786;2023-01-19T04:55:03;2.90;99.90
21039;DHT22;10678;51.002;4.786;2023-01-19T04:57:29;2.90;99.90
21039;DHT22;10678;51.002;4.786;2023-01-19T04:59:58;2.90;99.90
21039;DHT22;10678;51.002;4.786;2023-01-19T05:02:24;2.80;99.90
21039;DHT22;10678;51.002;4.786;2023-01-19T05:04:50;2.60;99.90
21039;DHT22;10678;51.002;4.786;2023-01-19T05:07:16;2.70;99.90
21039;DHT22;10678;51.002;4.786;2023-01-19T05:09:42;2.80;99.90
21039;DHT22;10678;51.002;4.786;2023-01-19T05:12:08;2.80;99.90
21039;DHT22;10678;51.002;4.786;2023-01-19T05:14:33;2.70;99.90
21039;DHT22;10678;51.002;4.786;2023-01-19T05:16:59;2.70;99.90
21039;DHT22;10678;51.002;4.786;2023-01-19T05:19:27;2.50;99.90
21039;DHT22;10678;51.002;4.786;2023-01-19T05:21:52;2.50;99.90
21039;DHT22;10678;51.002;4.786;2023-01-19T05:24:19;2.50;99.90
21039;DHT22;10678;51.002;4.786;2023-01-19T05:26:44;2.60;99.90
21039;DHT22;10678;51.002;4.786;2023-01-19T05:29:10;2.50;99.90
21039;DHT22;10678;51.002;4.786;2023-01-19T05:31:35;2.80;99.90
21039;DHT22;10678;51.002;4.786;2023-01-19T05:34:02;2.70;99.90
21039;DHT22;10678;51.002;4.786;2023-01-19T05:36:28;2.70;99.90
21039;DHT22;10678;51.002;4.786;2023-01-19T05:38:53;2.80;99.90
21039;DHT22;10678;51.002;4.786;2023-01-19T05:41:19;2.80;99.90
21039;DHT22;10678;51.002;4.786;2023-01-19T05:43:44;2.80;99.90
21039;DHT22;10678;51.002;4.786;2023-01-19T05:46:10;2.70;99.90
21039;DHT22;10678;51.002;4.786;2023-01-19T05:48:36;2.60;99.90
21039;DHT22;10678;51.002;4.786;2023-01-19T05:51:02;2.70;99.90
21039;DHT22;10678;51.002;4.786;2023-01-19T05:53:29;2.60;99.90
21039;DHT22;10678;51.002;4.786;2023-01-19T05:55:59;2.50;99.90
21039;DHT22;10678;51.002;4.786;2023-01-19T05:58:25;2.60;99.90
21039;DHT22;10678;51.002;4.786;2023-01-19T06:00:51;2.60;99.90
21039;DHT22;10678;51.002;4.786;2023-01-19T06:03:16;2.60;99.90
21039;DHT22;10678;51.002;4.786;2023-01-19T06:05:42;2.50;99.90
21039;DHT22;10678;51.002;4.786;2023-01-19T06:08:08;2.50;99.90
21039;DHT22;10678;51.002;4.786;2023-01-19T06:10:33;2.40;99.90
21039;DHT22;10678;51.002;4.786;2023-01-19T06:12:59;2.40;99.90
21039;DHT22;10678;51.002;4.786;2023-01-19T06:15:25;2.50;99.90
21039;DHT22;10678;51.002;4.786;2023-01-19T06:17:50;2.60;99.90
21039;DHT22;10678;51.002;4.786;2023-01-19T06:20:16;2.50;99.90
21039;DHT22;10678;51.002;4.786;2023-01-19T06:22:41;2.50;99.90
21039;DHT22;10678;51.002;4.786;2023-01-19T06:25:07;2.20;99.90
21039;DHT22;10678;51.002;4.786;2023-01-19T06:27:33;2.30;99.90
21039;DHT22;10678;51.002;4.786;2023-01-19T06:29:59;2.30;99.90
21039;DHT22;10678;51.002;4.786;2023-01-19T06:32:24;2.30;99.90
21039;DHT22;10678;51.002;4.786;2023-01-19T06:34:50;2.30;99.90
21039;DHT22;10678;51.002;4.786;2023-01-19T06:37:15;2.30;99.90
21039;DHT22;10678;51.002;4.786;2023-01-19T06:39:41;2.20;99.90
21039;DHT22;10678;51.002;4.786;2023-01-19T06:42:09;2.10;99.90
21039;DHT22;10678;51.002;4.786;2023-01-19T06:44:35;2.00;99.90
21039;DHT22;10678;51.002;4.786;2023-01-19T06:47:00;2.00;99.90
21039;DHT22;10678;51.002;4.786;2023-01-19T06:49:26;2.00;99.90
21039;DHT22;10678;51.002;4.786;2023-01-19T06:51:52;2.00;99.90
21039;DHT22;10678;51.002;4.786;2023-01-19T06:54:17;2.00;99.90
21039;DHT22;10678;51.002;4.786;2023-01-19T06:56:43;2.00;99.90
21039;DHT22;10678;51.002;4.786;2023-01-19T06:59:08;2.10;99.90
21039;DHT22;10678;51.002;4.786;2023-01-19T07:01:34;2.10;99.90
21039;DHT22;10678;51.002;4.786;2023-01-19T07:04:00;1.90;99.90
21039;DHT22;10678;51.002;4.786;2023-01-19T07:06:26;2.00;99.90
21039;DHT22;10678;51.002;4.786;2023-01-19T07:08:52;1.90;99.90
21039;DHT22;10678;51.002;4.786;2023-01-19T07:11:18;1.90;99.90
21039;DHT22;10678;51.002;4.786;2023-01-19T07:13:43;1.90;99.90
21039;DHT22;10678;51.002;4.786;2023-01-19T07:16:15;2.00;99.90
21039;DHT22;10678;51.002;4.786;2023-01-19T07:18:41;2.10;99.90
21039;DHT22;10678;51.002;4.786;2023-01-19T07:21:07;2.10;99.90
21039;DHT22;10678;51.002;4.786;2023-01-19T07:23:33;2.10;99.90
21039;DHT22;10678;51.002;4.786;2023-01-19T07:26:00;2.00;99.90
21039;DHT22;10678;51.002;4.786;2023-01-19T07:28:27;1.90;99.90
21039;DHT22;10678;51.002;4.786;2023-01-19T07:30:53;1.80;99.90
21039;DHT22;10678;51.002;4.786;2023-01-19T07:33:20;1.80;99.90
21039;DHT22;10678;51.002;4.786;2023-01-19T07:35:47;1.70;99.90
21039;DHT22;10678;51.002;4.786;2023-01-19T07:38:14;1.70;99.90
21039;DHT22;10678;51.002;4.786;2023-01-19T07:40:40;1.60;99.90
21039;DHT22;10678;51.002;4.786;2023-01-19T07:43:06;1.60;99.90
21039;DHT22;10678;51.002;4.786;2023-01-19T07:45:32;1.60;99.90
21039;DHT22;10678;51.002;4.786;2023-01-19T07:47:57;1.70;99.90
21039;DHT22;10678;51.002;4.786;2023-01-19T07:50:23;1.80;99.90
21039;DHT22;10678;51.002;4.786;2023-01-19T07:52:51;1.80;99.90
21039;DHT22;10678;51.002;4.786;2023-01-19T07:55:19;2.00;99.90
21039;DHT22;10678;51.002;4.786;2023-01-19T07:57:47;2.10;99.90
21039;DHT22;10678;51.002;4.786;2023-01-19T08:00:16;2.10;99.90
21039;DHT22;10678;51.002;4.786;2023-01-19T08:02:43;2.00;99.90
21039;DHT22;10678;51.002;4.786;2023-01-19T08:05:09;2.10;99.90
21039;DHT22;10678;51.002;4.786;2023-01-19T08:07:35;2.20;99.90
21039;DHT22;10678;51.002;4.786;2023-01-19T08:10:00;2.20;99.90
21039;DHT22;10678;51.002;4.786;2023-01-19T08:12:26;2.30;99.90
21039;DHT22;10678;51.002;4.786;2023-01-19T08:14:51;2.40;99.90
21039;DHT22;10678;51.002;4.786;2023-01-19T08:17:17;2.50;99.90
21039;DHT22;10678;51.002;4.786;2023-01-19T08:19:43;2.60;99.90
21039;DHT22;10678;51.002;4.786;2023-01-19T08:22:09;2.60;99.90
21039;DHT22;10678;51.002;4.786;2023-01-19T08:24:34;2.60;99.90
21039;DHT22;10678;51.002;4.786;2023-01-19T08:27:01;2.60;99.90
21039;DHT22;10678;51.002;4.786;2023-01-19T08:29:28;2.60;99.90
21039;DHT22;10678;51.002;4.786;2023-01-19T08:31:58;2.60;99.90
21039;DHT22;10678;51.002;4.786;2023-01-19T08:34:26;2.70;99.90
21039;DHT22;10678;51.002;4.786;2023-01-19T08:36:51;2.80;99.90
21039;DHT22;10678;51.002;4.786;2023-01-19T08:39:17;2.90;99.90
21039;DHT22;10678;51.002;4.786;2023-01-19T08:41:43;2.90;99.90
21039;DHT22;10678;51.002;4.786;2023-01-19T08:44:09;2.90;99.90
21039;DHT22;10678;51.002;4.786;2023-01-19T08:46:34;3.10;99.90
21039;DHT22;10678;51.002;4.786;2023-01-19T08:49:00;3.00;99.90
21039;DHT22;10678;51.002;4.786;2023-01-19T08:51:26;3.20;99.90
21039;DHT22;10678;51.002;4.786;2023-01-19T08:53:51;3.30;99.90
21039;DHT22;10678;51.002;4.786;2023-01-19T08:56:17;3.40;99.90
21039;DHT22;10678;51.002;4.786;2023-01-19T08:58:44;3.50;99.90
21039;DHT22;10678;51.002;4.786;2023-01-19T09:01:11;3.40;99.90
21039;DHT22;10678;51.002;4.786;2023-01-19T09:03:39;3.70;99.90
21039;DHT22;10678;51.002;4.786;2023-01-19T09:06:06;4.00;99.90
21039;DHT22;10678;51.002;4.786;2023-01-19T09:08:32;4.30;99.90
21039;DHT22;10678;51.002;4.786;2023-01-19T09:10:57;4.40;99.90
21039;DHT22;10678;51.002;4.786;2023-01-19T09:13:23;4.50;99.90
21039;DHT22;10678;51.002;4.786;2023-01-19T09:15:49;4.50;99.90
21039;DHT22;10678;51.002;4.786;2023-01-19T09:18:17;4.60;99.90
21039;DHT22;10678;51.002;4.786;2023-01-19T09:20:44;4.90;99.90
21039;DHT22;10678;51.002;4.786;2023-01-19T09:23:13;4.80;99.90
21039;DHT22;10678;51.002;4.786;2023-01-19T09:25:41;4.80;99.90
21039;DHT22;10678;51.002;4.786;2023-01-19T09:28:08;4.70;99.90
21039;DHT22;10678;51.002;4.786;2023-01-19T09:30:38;4.70;99.90
21039;DHT22;10678;51.002;4.786;2023-01-19T09:33:06;4.60;99.90
21039;DHT22;10678;51.002;4.786;2023-01-19T09:35:33;4.70;99.90
21039;DHT22;10678;51.002;4.786;2023-01-19T09:37:58;4.80;99.90
21039;DHT22;10678;51.002;4.786;2023-01-19T09:40:25;4.70;99.90
21039;DHT22;10678;51.002;4.786;2023-01-19T09:43:06;4.50;99.90
21039;DHT22;10678;51.002;4.786;2023-01-19T09:45:50;4.30;99.90
21039;DHT22;10678;51.002;4.786;2023-01-19T09:48:46;4.20;99.90
21039;DHT22;10678;51.002;4.786;2023-01-19T09:51:18;4.30;99.90
21039;DHT22;10678;51.002;4.786;2023-01-19T09:54:10;4.30;99.90
21039;DHT22;10678;51.002;4.786;2023-01-19T09:56:37;4.30;99.90
21039;DHT22;10678;51.002;4.786;2023-01-19T09:59:21;4.10;99.90
21039;DHT22;10678;51.002;4.786;2023-01-19T10:02:10;4.10;99.90
21039;DHT22;10678;51.002;4.786;2023-01-19T10:10:23;3.80;99.90
21039;DHT22;10678;51.002;4.786;2023-01-19T10:18:46;4.40;99.90
21039;DHT22;10678;51.002;4.786;2023-01-19T10:26:33;5.40;99.90
21039;DHT22;10678;51.002;4.786;2023-01-19T10:29:07;5.30;99.90
21039;DHT22;10678;51.002;4.786;2023-01-19T10:31:37;5.20;99.90
21039;DHT22;10678;51.002;4.786;2023-01-19T10:34:04;5.10;99.90
21039;DHT22;10678;51.002;4.786;2023-01-19T10:36:37;5.40;99.90
21039;DHT22;10678;51.002;4.786;2023-01-19T10:39:12;5.50;99.90
21039;DHT22;10678;51.002;4.786;2023-01-19T10:41:50;5.70;99.90
21039;DHT22;10678;51.002;4.786;2023-01-19T10:44:24;5.80;99.90
21039;DHT22;10678;51.002;4.786;2023-01-19T10:46:50;6.10;99.90
21039;DHT22;10678;51.002;4.786;2023-01-19T10:51:50;5.80;99.90
21039;DHT22;10678;51.002;4.786;2023-01-19T10:54:18;5.90;99.90
21039;DHT22;10678;51.002;4.786;2023-01-19T10:56:53;6.00;99.90
21039;DHT22;10678;51.002;4.786;2023-01-19T11:04:41;5.80;99.90
21039;DHT22;10678;51.002;4.786;2023-01-19T11:09:39;5.80;99.90
21039;DHT22;10678;51.002;4.786;2023-01-19T11:12:14;5.40;99.90
21039;DHT22;10678;51.002;4.786;2023-01-19T11:14:40;5.60;99.90
21039;DHT22;10678;51.002;4.786;2023-01-19T11:17:20;5.40;99.90
21039;DHT22;10678;51.002;4.786;2023-01-19T11:19:58;5.50;99.90
21039;DHT22;10678;51.002;4.786;2023-01-19T11:22:31;5.80;99.90
21039;DHT22;10678;51.002;4.786;2023-01-19T11:25:03;5.90;99.90
21039;DHT22;10678;51.002;4.786;2023-01-19T11:27:31;6.10;99.90
21039;DHT22;10678;51.002;4.786;2023-01-19T11:29:59;6.00;99.90
21039;DHT22;10678;51.002;4.786;2023-01-19T11:32:27;5.80;99.90
21039;DHT22;10678;51.002;4.786;2023-01-19T11:34:52;5.70;99.90
21039;DHT22;10678;51.002;4.786;2023-01-19T11:39:50;6.00;99.90
21039;DHT22;10678;51.002;4.786;2023-01-19T11:42:17;6.00;99.90
21039;DHT22;10678;51.002;4.786;2023-01-19T11:44:57;5.70;99.90
21039;DHT22;10678;51.002;4.786;2023-01-19T11:47:44;5.60;99.90
21039;DHT22;10678;51.002;4.786;2023-01-19T11:53:06;5.60;99.90
21039;DHT22;10678;51.002;4.786;2023-01-19T11:55:56;5.60;99.90
21039;DHT22;10678;51.002;4.786;2023-01-19T11:58:23;5.20;99.90
21039;DHT22;10678;51.002;4.786;2023-01-19T12:03:43;5.40;99.90
21039;DHT22;10678;51.002;4.786;2023-01-19T12:06:18;5.30;99.90
21039;DHT22;10678;51.002;4.786;2023-01-19T12:08:56;5.50;99.90
21039;DHT22;10678;51.002;4.786;2023-01-19T12:11:26;5.50;99.90
21039;DHT22;10678;51.002;4.786;2023-01-19T12:13:55;5.40;99.90
21039;DHT22;10678;51.002;4.786;2023-01-19T12:16:29;5.50;99.90
21039;DHT22;10678;51.002;4.786;2023-01-19T12:19:13;5.60;99.90
21039;DHT22;10678;51.002;4.786;2023-01-19T12:21:40;5.70;99.90
21039;DHT22;10678;51.002;4.786;2023-01-19T12:24:15;5.70;99.90
21039;DHT22;10678;51.002;4.786;2023-01-19T12:26:50;5.70;99.90
21039;DHT22;10678;51.002;4.786;2023-01-19T12:29:18;6.00;99.90
21039;DHT22;10678;51.002;4.786;2023-01-19T12:34:45;6.00;99.90
21039;DHT22;10678;51.002;4.786;2023-01-19T12:37:27;6.30;99.90
21039;DHT22;10678;51.002;4.786;2023-01-19T12:40:30;6.60;99.90
21039;DHT22;10678;51.002;4.786;2023-01-19T12:45:22;6.30;99.90
21039;DHT22;10678;51.002;4.786;2023-01-19T12:47:53;6.30;99.90
21039;DHT22;10678;51.002;4.786;2023-01-19T12:50:21;6.10;99.90
21039;DHT22;10678;51.002;4.786;2023-01-19T12:52:57;6.10;99.90
21039;DHT22;10678;51.002;4.786;2023-01-19T12:55:29;6.00;99.90
21039;DHT22;10678;51.002;4.786;2023-01-19T12:58:13;5.90;99.90
21039;DHT22;10678;51.002;4.786;2023-01-19T13:00:43;5.90;99.90
21039;DHT22;10678;51.002;4.786;2023-01-19T13:24:05;5.70;99.90
21039;DHT22;10678;51.002;4.786;2023-01-19T13:26:34;5.80;99.90
21039;DHT22;10678;51.002;4.786;2023-01-19T13:29:06;5.90;99.90
21039;DHT22;10678;51.002;4.786;2023-01-19T13:31:39;5.90;99.90
21039;DHT22;10678;51.002;4.786;2023-01-19T13:34:14;6.00;99.90
21039;DHT22;10678;51.002;4.786;2023-01-19T13:36:44;6.10;99.90
21039;DHT22;10678;51.002;4.786;2023-01-19T13:39:25;6.30;99.90
21039;DHT22;10678;51.002;4.786;2023-01-19T13:41:54;6.20;99.90
21039;DHT22;10678;51.002;4.786;2023-01-19T13:44:20;6.30;99.90
21039;DHT22;10678;51.002;4.786;2023-01-19T13:46:48;6.20;99.90
21039;DHT22;10678;51.002;4.786;2023-01-19T13:49:35;6.10;99.90
21039;DHT22;10678;51.002;4.786;2023-01-19T13:54:36;6.10;99.90
21039;DHT22;10678;51.002;4.786;2023-01-19T13:57:01;6.20;99.90
21039;DHT22;10678;51.002;4.786;2023-01-19T13:59:27;6.20;99.90
21039;DHT22;10678;51.002;4.786;2023-01-19T14:01:52;6.20;99.90
21039;DHT22;10678;51.002;4.786;2023-01-19T14:04:32;6.10;99.90
21039;DHT22;10678;51.002;4.786;2023-01-19T14:07:02;6.10;99.90
21039;DHT22;10678;51.002;4.786;2023-01-19T14:09:29;6.20;99.90
21039;DHT22;10678;51.002;4.786;2023-01-19T14:12:11;6.20;99.90
21039;DHT22;10678;51.002;4.786;2023-01-19T14:14:38;6.30;99.90
21039;DHT22;10678;51.002;4.786;2023-01-19T14:17:20;6.40;99.90
21039;DHT22;10678;51.002;4.786;2023-01-19T14:19:48;6.50;99.90
21039;DHT22;10678;51.002;4.786;2023-01-19T14:22:14;6.30;99.90
21039;DHT22;10678;51.002;4.786;2023-01-19T14:24:40;6.30;99.90
21039;DHT22;10678;51.002;4.786;2023-01-19T14:29:46;6.30;99.90
21039;DHT22;10678;51.002;4.786;2023-01-19T14:37:33;6.00;99.90
21039;DHT22;10678;51.002;4.786;2023-01-19T14:42:44;6.00;99.90
21039;DHT22;10678;51.002;4.786;2023-01-19T14:45:50;6.00;99.90
21039;DHT22;10678;51.002;4.786;2023-01-19T14:48:15;5.90;99.90
21039;DHT22;10678;51.002;4.786;2023-01-19T14:50:42;5.90;99.90
21039;DHT22;10678;51.002;4.786;2023-01-19T14:53:15;5.80;99.90
21039;DHT22;10678;51.002;4.786;2023-01-19T14:55:53;5.80;99.90
21039;DHT22;10678;51.002;4.786;2023-01-19T14:58:22;5.80;99.90
21039;DHT22;10678;51.002;4.786;2023-01-19T15:00:49;5.80;99.90
21039;DHT22;10678;51.002;4.786;2023-01-19T15:03:14;5.80;99.90
21039;DHT22;10678;51.002;4.786;2023-01-19T15:05:45;5.80;99.90
21039;DHT22;10678;51.002;4.786;2023-01-19T15:08:26;5.80;99.90
21039;DHT22;10678;51.002;4.786;2023-01-19T15:10:53;5.90;99.90
21039;DHT22;10678;51.002;4.786;2023-01-19T15:13:23;6.00;99.90
21039;DHT22;10678;51.002;4.786;2023-01-19T15:15:50;5.70;99.90
21039;DHT22;10678;51.002;4.786;2023-01-19T15:18:19;5.70;99.90
21039;DHT22;10678;51.002;4.786;2023-01-19T15:20:46;5.60;99.90
21039;DHT22;10678;51.002;4.786;2023-01-19T15:23:12;5.40;99.90
21039;DHT22;10678;51.002;4.786;2023-01-19T15:25:37;5.20;99.90
21039;DHT22;10678;51.002;4.786;2023-01-19T15:28:18;5.10;99.90
21039;DHT22;10678;51.002;4.786;2023-01-19T15:30:44;4.90;99.90
21039;DHT22;10678;51.002;4.786;2023-01-19T15:33:19;4.80;99.90
21039;DHT22;10678;51.002;4.786;2023-01-19T15:35:45;4.60;99.90
21039;DHT22;10678;51.002;4.786;2023-01-19T15:38:11;4.60;99.90
21039;DHT22;10678;51.002;4.786;2023-01-19T15:40:36;4.40;99.90
21039;DHT22;10678;51.002;4.786;2023-01-19T15:43:02;4.30;99.90
21039;DHT22;10678;51.002;4.786;2023-01-19T15:45:37;4.20;99.90
21039;DHT22;10678;51.002;4.786;2023-01-19T15:48:08;4.00;99.90
21039;DHT22;10678;51.002;4.786;2023-01-19T15:50:38;4.00;99.90
21039;DHT22;10678;51.002;4.786;2023-01-19T15:53:05;3.90;99.90
21039;DHT22;10678;51.002;4.786;2023-01-19T15:55:31;3.90;99.90
21039;DHT22;10678;51.002;4.786;2023-01-19T15:57:56;3.90;99.90
21039;DHT22;10678;51.002;4.786;2023-01-19T16:00:27;3.80;99.90
21039;DHT22;10678;51.002;4.786;2023-01-19T16:02:53;3.70;99.90
21039;DHT22;10678;51.002;4.786;2023-01-19T16:05:18;3.70;99.90
21039;DHT22;10678;51.002;4.786;2023-01-19T16:07:44;3.50;99.90
21039;DHT22;10678;51.002;4.786;2023-01-19T16:10:10;3.50;99.90
21039;DHT22;10678;51.002;4.786;2023-01-19T16:12:37;3.40;99.90
21039;DHT22;10678;51.002;4.786;2023-01-19T16:15:03;3.20;99.90
21039;DHT22;10678;51.002;4.786;2023-01-19T16:17:29;3.10;99.90
21039;DHT22;10678;51.002;4.786;2023-01-19T16:19:54;3.20;99.90
21039;DHT22;10678;51.002;4.786;2023-01-19T16:22:20;3.20;99.90
21039;DHT22;10678;51.002;4.786;2023-01-19T16:24:46;3.20;99.90
21039;DHT22;10678;51.002;4.786;2023-01-19T16:27:11;3.20;99.90
21039;DHT22;10678;51.002;4.786;2023-01-19T16:29:37;3.20;99.90
21039;DHT22;10678;51.002;4.786;2023-01-19T16:32:03;3.10;99.90
21039;DHT22;10678;51.002;4.786;2023-01-19T16:34:28;3.10;99.90
21039;DHT22;10678;51.002;4.786;2023-01-19T16:36:54;3.10;99.90
21039;DHT22;10678;51.002;4.786;2023-01-19T16:39:20;3.10;99.90
21039;DHT22;10678;51.002;4.786;2023-01-19T16:41:46;3.20;99.90
21039;DHT22;10678;51.002;4.786;2023-01-19T16:44:13;3.10;99.90
21039;DHT22;10678;51.002;4.786;2023-01-19T16:46:41;3.10;99.90
21039;DHT22;10678;51.002;4.786;2023-01-19T16:49:13;3.00;99.90
21039;DHT22;10678;51.002;4.786;2023-01-19T16:51:40;2.90;99.90
21039;DHT22;10678;51.002;4.786;2023-01-19T16:54:05;2.80;99.90
21039;DHT22;10678;51.002;4.786;2023-01-19T16:56:31;2.80;99.90
21039;DHT22;10678;51.002;4.786;2023-01-19T16:58:58;2.70;99.90
21039;DHT22;10678;51.002;4.786;2023-01-19T17:01:26;2.70;99.90
21039;DHT22;10678;51.002;4.786;2023-01-19T17:03:52;2.60;99.90
21039;DHT22;10678;51.002;4.786;2023-01-19T17:06:19;2.60;99.90
21039;DHT22;10678;51.002;4.786;2023-01-19T17:08:47;2.60;99.90
21039;DHT22;10678;51.002;4.786;2023-01-19T17:11:15;2.50;99.90
21039;DHT22;10678;51.002;4.786;2023-01-19T17:13:48;2.60;99.90
21039;DHT22;10678;51.002;4.786;2023-01-19T17:16:14;2.60;99.90
21039;DHT22;10678;51.002;4.786;2023-01-19T17:18:40;2.50;99.90
21039;DHT22;10678;51.002;4.786;2023-01-19T17:21:07;2.50;99.90
21039;DHT22;10678;51.002;4.786;2023-01-19T17:23:34;2.50;99.90
21039;DHT22;10678;51.002;4.786;2023-01-19T17:26:00;2.60;99.90
21039;DHT22;10678;51.002;4.786;2023-01-19T17:28:26;2.50;99.90
21039;DHT22;10678;51.002;4.786;2023-01-19T17:31:12;2.50;99.90